Time;durP1;ratioP1;P1;durP2;ratioP2;P2;SDS_P1;SDS_P2;PMS_P1;PMS_P2;Temp;Humidity;BMP_temperature;BMP_pressure;BME280_temperature;BME280_humidity;BME280_pressure;Samples;Min_cycle;Max_cycle;Signal;HPM_P1;HPM_P2
2022/04/07 00:01:15;;;;;;;5.15;3.00;;;;;;;1.39;98.04;98405.19;5064886;28;20052;-43
2022/04/07 00:03:41;;;;;;;4.75;2.63;;;;;;;1.36;98.75;98393.25;5065373;28;20483;-42
2022/04/07 00:06:09;;;;;;;4.10;2.42;;;;;;;1.42;99.24;98408.53;5066174;28;20569;-42
2022/04/07 00:08:39;;;;;;;4.37;2.43;;;;;;;1.46;97.39;98409.31;5053314;28;20051;-43
2022/04/07 00:11:07;;;;;;;8.38;2.67;;;;;;;1.52;97.45;98414.31;5050639;28;20039;-42
2022/04/07 00:13:32;;;;;;;7.30;3.15;;;;;;;1.51;98.45;98410.94;5060339;28;20051;-41
2022/04/07 00:15:59;;;;;;;4.25;2.60;;;;;;;1.54;97.40;98405.75;5049761;28;20041;-44
2022/04/07 00:18:29;;;;;;;4.60;2.00;;;;;;;1.55;95.77;98412.56;5048725;28;20128;-41
2022/04/07 00:20:54;;;;;;;4.35;2.35;;;;;;;1.56;98.26;98414.25;5047570;28;20036;-42
2022/04/07 00:23:21;;;;;;;5.43;2.95;;;;;;;1.56;96.91;98414.25;5050624;28;20558;-42
2022/04/07 00:25:47;;;;;;;6.00;3.20;;;;;;;1.47;98.54;98405.88;5057774;28;20484;-42
2022/04/07 00:28:12;;;;;;;5.22;2.80;;;;;;;1.55;97.75;98419.38;5069886;28;20043;-43
2022/04/07 00:30:39;;;;;;;4.38;2.40;;;;;;;1.59;100.00;98421.00;5055700;28;20029;-42
2022/04/07 00:33:07;;;;;;;5.40;3.15;;;;;;;1.55;96.44;98420.25;5054948;28;20043;-41
2022/04/07 00:35:33;;;;;;;11.13;3.38;;;;;;;1.50;92.96;98426.31;5056343;28;20450;-41
2022/04/07 00:38:00;;;;;;;7.50;3.15;;;;;;;1.53;97.59;98421.97;5052790;28;20047;-41
2022/04/07 00:40:26;;;;;;;6.68;3.35;;;;;;;1.33;97.64;98383.09;5069231;28;20037;-43
2022/04/07 00:42:52;;;;;;;5.25;3.00;;;;;;;1.54;98.52;98407.44;5059890;28;20055;-41
2022/04/07 00:45:20;;;;;;;6.13;3.53;;;;;;;1.54;98.15;98410.00;5053536;28;20087;-43
2022/04/07 00:47:46;;;;;;;6.22;3.63;;;;;;;1.50;97.00;98416.06;5065619;28;20048;-41
2022/04/07 00:50:13;;;;;;;5.70;2.92;;;;;;;1.50;97.86;98416.06;5067827;28;20060;-41
2022/04/07 00:52:55;;;;;;;6.00;3.30;;;;;;;1.57;99.20;98417.66;5066288;28;20056;-41
2022/04/07 00:55:21;;;;;;;5.53;3.10;;;;;;;1.51;100.00;98400.69;5063150;28;20071;-42
2022/04/07 00:57:47;;;;;;;5.78;3.65;;;;;;;1.58;99.07;98415.03;5057715;28;20128;-43
2022/04/07 01:00:14;;;;;;;6.60;3.33;;;;;;;1.59;100.00;98419.31;5061287;28;20508;-42
2022/04/07 01:02:40;;;;;;;5.80;3.45;;;;;;;1.57;100.00;98418.47;5032611;28;20065;-42
2022/04/07 01:05:08;;;;;;;9.27;3.58;;;;;;;1.57;100.00;98410.78;5051192;28;20523;-42
2022/04/07 01:07:39;;;;;;;7.75;3.55;;;;;;;1.57;100.00;98404.84;5049309;28;20451;-40
2022/04/07 01:10:07;;;;;;;6.32;3.30;;;;;;;1.64;100.00;98408.97;5052515;28;20048;-42
2022/04/07 01:12:32;;;;;;;6.85;3.20;;;;;;;1.49;100.00;98376.81;5050102;28;20086;-42
2022/04/07 01:15:00;;;;;;;4.22;3.15;;;;;;;1.72;100.00;98409.69;5060944;28;20044;-41
2022/04/07 01:17:26;;;;;;;7.40;3.45;;;;;;;1.60;100.00;98386.84;5055650;28;20086;-41
2022/04/07 01:19:53;;;;;;;5.63;3.05;;;;;;;1.64;100.00;98391.03;5061748;28;20135;-42
2022/04/07 01:22:20;;;;;;;7.45;3.47;;;;;;;1.74;100.00;98413.03;5066963;28;20044;-43
2022/04/07 01:24:47;;;;;;;8.52;3.47;;;;;;;1.70;99.57;98408.84;5057330;28;20114;-40
2022/04/07 01:27:13;;;;;;;5.72;3.20;;;;;;;1.67;98.61;98412.31;5067295;28;20044;-42
2022/04/07 01:29:39;;;;;;;7.55;3.83;;;;;;;1.69;98.72;98412.28;5066177;28;20036;-42
2022/04/07 01:32:16;;;;;;;6.13;3.55;;;;;;;1.56;97.18;98395.47;5049829;28;20243;-43
2022/04/07 01:34:42;;;;;;;5.63;3.35;;;;;;;1.66;95.73;98409.78;5064884;28;20055;-42
2022/04/07 01:37:09;;;;;;;7.00;4.68;;;;;;;1.62;97.60;98403.03;5063138;28;20044;-42
2022/04/07 01:39:35;;;;;;;6.75;4.18;;;;;;;1.65;98.85;98402.97;5066451;28;20132;-41
2022/04/07 01:42:01;;;;;;;8.38;4.20;;;;;;;1.65;99.91;98397.84;5061272;28;20642;-40
2022/04/07 01:44:29;;;;;;;6.90;3.47;;;;;;;1.69;100.00;98402.88;5041984;28;20051;-42
2022/04/07 01:46:56;;;;;;;7.38;3.65;;;;;;;1.59;100.00;98388.56;5062078;28;20792;-42
2022/04/07 01:49:23;;;;;;;6.75;3.50;;;;;;;1.63;100.00;98384.22;5034525;28;20479;-42
2022/04/07 01:51:48;;;;;;;5.55;3.45;;;;;;;1.77;100.00;98400.19;5047307;28;20044;-41
2022/04/07 01:54:15;;;;;;;8.43;3.55;;;;;;;1.77;100.00;98399.34;5047439;28;20048;-41
2022/04/07 01:56:42;;;;;;;6.05;3.70;;;;;;;1.91;100.00;98394.78;5049013;28;20041;-42
2022/04/07 01:59:08;;;;;;;8.57;2.85;;;;;;;1.88;100.00;98402.53;5047103;28;20056;-41
2022/04/07 02:01:34;;;;;;;6.40;3.20;;;;;;;1.81;100.00;98400.97;5048363;28;20029;-42
2022/04/07 02:04:00;;;;;;;5.60;3.13;;;;;;;1.87;100.00;98401.69;5048354;28;20071;-40
2022/04/07 02:06:27;;;;;;;8.63;3.08;;;;;;;1.95;100.00;98401.50;5048818;28;20045;-44
2022/04/07 02:08:53;;;;;;;6.38;3.55;;;;;;;1.99;100.00;98411.66;5081297;28;20044;-41
2022/04/07 02:11:20;;;;;;;5.75;3.47;;;;;;;2.01;100.00;98409.09;5048534;28;20445;-42
2022/04/07 02:13:46;;;;;;;5.63;2.97;;;;;;;1.99;98.38;98408.28;5047635;28;20503;-42
2022/04/07 02:16:13;;;;;;;9.82;3.03;;;;;;;1.96;100.00;98408.34;5045024;28;20045;-42
2022/04/07 02:18:39;;;;;;;7.50;3.28;;;;;;;1.94;100.00;98398.09;5048624;28;20033;-41
2022/04/07 02:21:05;;;;;;;6.40;3.30;;;;;;;1.99;100.00;98398.03;5048397;28;20089;-41
2022/04/07 02:23:34;;;;;;;7.80;3.30;;;;;;;2.01;100.00;98391.13;5048970;28;20058;-43
2022/04/07 02:26:00;;;;;;;6.10;3.20;;;;;;;2.02;100.00;98397.97;5048709;28;20037;-43
2022/04/07 02:28:26;;;;;;;6.55;3.70;;;;;;;2.06;100.00;98399.56;5048224;28;20053;-41
2022/04/07 02:30:51;;;;;;;5.32;2.90;;;;;;;2.00;100.00;98381.75;5056401;28;20051;-42
2022/04/07 02:33:17;;;;;;;4.95;3.10;;;;;;;2.11;100.00;98392.63;5067436;28;20044;-42
2022/04/07 02:35:42;;;;;;;4.53;2.70;;;;;;;2.13;100.00;98390.88;5050584;28;20139;-43
2022/04/07 02:38:08;;;;;;;6.93;3.47;;;;;;;2.16;100.00;98392.53;5047049;28;20048;-41
2022/04/07 02:40:34;;;;;;;5.10;3.17;;;;;;;2.27;100.00;98391.44;5047601;28;20131;-42
2022/04/07 02:43:00;;;;;;;4.95;2.83;;;;;;;2.42;100.00;98395.38;5051635;28;20049;-43
2022/04/07 02:45:25;;;;;;;3.95;2.88;;;;;;;2.54;100.00;98395.94;5064243;28;20047;-43
2022/04/07 02:47:51;;;;;;;5.75;3.22;;;;;;;2.56;100.00;98394.16;5059431;28;20174;-41
2022/04/07 02:50:17;;;;;;;5.65;3.13;;;;;;;2.57;100.00;98397.59;5047267;28;20067;-42
2022/04/07 02:52:43;;;;;;;4.95;3.08;;;;;;;2.57;100.00;98405.28;5060611;28;20093;-43
2022/04/07 02:55:09;;;;;;;5.95;3.15;;;;;;;2.60;100.00;98402.66;5068209;28;20040;-41
2022/04/07 02:57:35;;;;;;;7.72;3.00;;;;;;;2.60;100.00;98396.69;5048596;28;20105;-42
2022/04/07 03:00:04;;;;;;;6.45;3.17;;;;;;;2.71;100.00;98403.25;5052810;28;20090;-42
2022/04/07 03:02:29;;;;;;;6.43;3.20;;;;;;;2.81;100.00;98407.28;5046944;28;20505;-41
2022/04/07 03:04:55;;;;;;;6.32;3.00;;;;;;;2.81;100.00;98397.03;5057754;28;20343;-42
2022/04/07 03:07:21;;;;;;;6.32;3.35;;;;;;;2.89;100.00;98400.25;5050660;28;20041;-41
2022/04/07 03:09:47;;;;;;;4.97;2.83;;;;;;;2.92;100.00;98409.59;5048299;28;20131;-42
2022/04/07 03:12:15;;;;;;;6.03;3.20;;;;;;;2.90;100.00;98417.34;5046799;28;20041;-41
2022/04/07 03:14:41;;;;;;;5.13;3.13;;;;;;;2.85;100.00;98402.91;5049399;28;20089;-41
2022/04/07 03:17:07;;;;;;;5.50;3.45;;;;;;;3.01;100.00;98418.78;5048916;28;20061;-40
2022/04/07 03:19:34;;;;;;;6.07;3.08;;;;;;;3.05;100.00;98407.56;5030224;28;20555;-41
2022/04/07 03:22:00;;;;;;;7.40;3.05;;;;;;;3.06;100.00;98402.41;5048926;28;20072;-42
2022/04/07 03:24:26;;;;;;;6.75;3.55;;;;;;;3.07;100.00;98390.41;5063481;28;20401;-41
2022/04/07 03:26:52;;;;;;;8.73;3.72;;;;;;;3.04;97.59;98399.00;5046737;28;20551;-43
2022/04/07 03:29:20;;;;;;;5.55;3.13;;;;;;;3.16;98.73;98395.31;5053002;28;20056;-42
2022/04/07 03:31:49;;;;;;;7.43;3.67;;;;;;;3.25;98.96;98380.50;5059919;28;20048;-42
2022/04/07 03:34:15;;;;;;;6.45;3.20;;;;;;;3.31;100.00;98385.47;5062994;28;20063;-42
2022/04/07 03:36:41;;;;;;;5.22;3.03;;;;;;;3.32;98.44;98383.75;5047616;28;20049;-41
2022/04/07 03:39:07;;;;;;;6.68;3.28;;;;;;;3.31;97.76;98379.50;5047990;28;20041;-43
2022/04/07 03:41:32;;;;;;;6.43;3.03;;;;;;;3.32;95.73;98383.75;5049861;28;20416;-43
2022/04/07 03:43:58;;;;;;;6.90;2.83;;;;;;;3.36;98.04;98381.06;5066311;28;20045;-42
2022/04/07 03:46:24;;;;;;;7.53;3.50;;;;;;;3.37;96.22;98380.19;5050061;28;20044;-43
2022/04/07 03:48:50;;;;;;;6.25;3.05;;;;;;;3.18;95.32;98352.47;5058874;28;20066;-42
2022/04/07 03:51:19;;;;;;;6.05;3.22;;;;;;;3.34;93.91;98382.00;5047892;28;20052;-42
2022/04/07 03:53:45;;;;;;;5.93;2.90;;;;;;;3.15;92.92;98353.38;5048046;28;20079;-43
2022/04/07 03:56:11;;;;;;;6.10;3.28;;;;;;;3.33;92.30;98370.03;5050837;28;20508;-43
2022/04/07 03:58:39;;;;;;;6.20;3.47;;;;;;;3.32;92.14;98379.47;5064679;28;20060;-42
2022/04/07 04:01:05;;;;;;;5.03;2.92;;;;;;;3.34;92.51;98385.41;5052330;28;20430;-40
2022/04/07 04:03:31;;;;;;;5.13;3.30;;;;;;;3.37;92.35;98395.59;5069642;28;20051;-41
2022/04/07 04:05:57;;;;;;;4.90;3.15;;;;;;;3.44;91.36;98383.44;5066305;28;20056;-41
2022/04/07 04:08:23;;;;;;;7.85;2.70;;;;;;;3.51;91.44;98387.53;5062158;28;20045;-41
2022/04/07 04:10:48;;;;;;;4.68;3.08;;;;;;;3.58;91.39;98380.50;5058747;28;20470;-43
2022/04/07 04:13:14;;;;;;;6.25;3.45;;;;;;;3.64;92.14;98381.19;5050848;28;20512;-42
2022/04/07 04:15:40;;;;;;;6.55;3.45;;;;;;;3.73;90.81;98387.78;5051785;28;20147;-42
2022/04/07 04:18:05;;;;;;;6.20;3.60;;;;;;;3.60;90.61;98356.47;5052202;28;20048;-40
2022/04/07 04:20:31;;;;;;;7.13;3.90;;;;;;;3.74;90.29;98381.75;5080113;28;20487;-43
2022/04/07 04:22:57;;;;;;;5.97;3.38;;;;;;;3.72;91.65;98358.66;5053569;28;20532;-46
2022/04/07 04:25:23;;;;;;;6.32;3.22;;;;;;;3.86;92.27;98373.72;5066503;28;20040;-43
2022/04/07 04:27:49;;;;;;;6.38;3.35;;;;;;;3.87;91.39;98372.00;5051751;28;20512;-52
2022/04/07 04:30:15;;;;;;;5.85;3.67;;;;;;;3.92;93.86;98368.41;5087010;28;20079;-41
2022/04/07 04:32:43;;;;;;;5.03;3.00;;;;;;;3.84;94.50;98337.75;5052277;28;20039;-41
2022/04/07 04:35:10;;;;;;;8.18;3.78;;;;;;;4.10;94.29;98362.72;5053444;28;20040;-42
2022/04/07 04:37:39;;;;;;;7.18;4.25;;;;;;;4.15;94.52;98367.72;5050586;28;20045;-42
2022/04/07 04:40:05;;;;;;;7.67;3.77;;;;;;;4.26;96.96;98370.81;5066125;28;20083;-43
2022/04/07 04:42:31;;;;;;;7.63;3.60;;;;;;;4.28;95.14;98371.63;5048746;28;20633;-42
2022/04/07 04:44:56;;;;;;;4.95;2.67;;;;;;;4.31;93.05;98376.66;5051836;28;20040;-44
2022/04/07 04:47:22;;;;;;;5.75;3.47;;;;;;;4.12;86.40;98350.66;5049775;28;20059;-42
2022/04/07 04:49:48;;;;;;;4.97;2.83;;;;;;;4.25;83.38;98374.25;5053560;28;20033;-43
2022/04/07 04:52:14;;;;;;;6.63;2.55;;;;;;;4.14;77.89;98358.31;5048990;28;20085;-43
2022/04/07 04:54:39;;;;;;;4.57;2.83;;;;;;;4.37;82.63;98366.19;5048786;28;20036;-42
2022/04/07 04:57:06;;;;;;;4.72;2.80;;;;;;;4.40;80.34;98375.53;5048598;28;20114;-44
2022/04/07 04:59:32;;;;;;;2.28;1.50;;;;;;;4.40;71.87;98362.66;5048146;28;20148;-44
2022/04/07 05:01:58;;;;;;;6.32;2.30;;;;;;;4.34;74.29;98375.75;5051069;28;20045;-40
2022/04/07 05:04:24;;;;;;;5.60;2.85;;;;;;;4.40;77.41;98373.78;5050276;28;20137;-43
2022/04/07 05:06:49;;;;;;;5.85;2.00;;;;;;;4.30;70.66;98381.84;5049777;28;20068;-42
2022/04/07 05:09:15;;;;;;;4.28;1.55;;;;;;;4.24;70.46;98381.13;5051581;28;20029;-43
2022/04/07 05:11:42;;;;;;;5.28;2.47;;;;;;;4.14;72.95;98379.72;5050318;28;20044;-41
2022/04/07 05:14:09;;;;;;;5.20;2.50;;;;;;;4.18;74.15;98377.94;5049333;28;20461;-43
2022/04/07 05:16:34;;;;;;;2.88;1.88;;;;;;;3.95;72.36;98360.59;5050111;28;20045;-44
2022/04/07 05:19:00;;;;;;;5.50;2.67;;;;;;;4.09;77.56;98378.19;5047428;28;20059;-42
2022/04/07 05:21:26;;;;;;;3.15;2.25;;;;;;;4.08;75.54;98399.66;5049308;28;20084;-45
2022/04/07 05:23:52;;;;;;;6.10;3.20;;;;;;;3.93;77.37;98388.06;5048780;28;20041;-45
2022/04/07 05:26:18;;;;;;;5.05;2.20;;;;;;;3.99;79.09;98387.88;5049139;28;20161;-43
2022/04/07 05:28:44;;;;;;;6.93;2.80;;;;;;;3.90;79.59;98390.72;5052306;28;20402;-45
2022/04/07 05:31:10;;;;;;;5.57;2.90;;;;;;;3.69;79.55;98373.34;5052144;28;20028;-42
2022/04/07 05:33:36;;;;;;;11.10;3.22;;;;;;;3.73;81.40;98375.78;5063851;28;20039;-44
2022/04/07 05:36:02;;;;;;;4.22;2.22;;;;;;;3.86;77.54;98378.84;5040841;28;20044;-43
2022/04/07 05:38:27;;;;;;;3.28;2.20;;;;;;;3.65;77.14;98346.88;5059900;28;20055;-42
2022/04/07 05:40:53;;;;;;;4.80;2.85;;;;;;;3.80;79.79;98361.88;5069756;28;20045;-47
2022/04/07 05:43:19;;;;;;;4.72;3.22;;;;;;;3.78;78.99;98350.78;5053520;28;20158;-48
2022/04/07 05:45:45;;;;;;;7.28;3.10;;;;;;;3.90;82.19;98361.59;5049059;28;20498;-44
2022/04/07 05:48:13;;;;;;;5.30;2.35;;;;;;;4.02;79.70;98351.81;5048506;28;20037;-45
2022/04/07 05:50:39;;;;;;;6.60;2.88;;;;;;;3.91;78.73;98359.00;5065941;28;20043;-41
2022/04/07 05:53:06;;;;;;;6.38;3.38;;;;;;;3.81;79.03;98342.16;5065459;28;20072;-44
2022/04/07 05:55:33;;;;;;;8.00;3.13;;;;;;;3.83;79.12;98330.94;5049133;28;20122;-45
2022/04/07 05:58:06;;;;;;;5.72;3.05;;;;;;;3.74;79.95;98333.78;5045535;28;20091;-40
2022/04/07 06:00:32;;;;;;;5.22;2.70;;;;;;;3.71;80.58;98333.88;5059105;28;20082;-42
2022/04/07 06:02:58;;;;;;;6.60;2.78;;;;;;;3.73;81.47;98333.81;5047490;28;20052;-42
2022/04/07 06:05:24;;;;;;;7.10;3.85;;;;;;;3.81;84.24;98311.31;5046756;28;20045;-43
2022/04/07 06:07:50;;;;;;;7.70;2.72;;;;;;;3.94;83.11;98334.91;5047911;28;20102;-42
2022/04/07 06:10:16;;;;;;;4.95;3.15;;;;;;;3.89;85.81;98295.66;5031068;28;20129;-44
2022/04/07 06:12:43;;;;;;;5.28;3.53;;;;;;;3.92;84.93;98327.28;5051200;28;20152;-43
2022/04/07 06:15:10;;;;;;;5.25;2.72;;;;;;;3.93;85.53;98323.78;5052362;28;20068;-43
2022/04/07 06:17:41;;;;;;;7.55;3.38;;;;;;;3.91;87.69;98311.88;5047694;28;20044;-43
2022/04/07 06:20:08;;;;;;;5.60;2.85;;;;;;;4.05;89.13;98309.72;5044963;28;20041;-42
2022/04/07 06:22:34;;;;;;;4.60;2.72;;;;;;;4.04;87.80;98308.03;5049838;28;20047;-42
2022/04/07 06:25:00;;;;;;;5.88;3.38;;;;;;;4.04;89.78;98300.31;5062261;28;20068;-43
2022/04/07 06:27:34;;;;;;;4.75;2.80;;;;;;;3.97;88.38;98309.13;5048031;28;20037;-42
2022/04/07 06:30:00;;;;;;;5.05;3.22;;;;;;;3.94;88.51;98293.78;5046589;28;20425;-43
2022/04/07 06:32:26;;;;;;;6.10;3.72;;;;;;;3.99;91.14;98294.47;5062282;28;20048;-41
2022/04/07 06:34:52;;;;;;;5.43;3.05;;;;;;;3.94;87.17;98299.78;5059517;28;20061;-42
2022/04/07 06:37:17;;;;;;;6.60;3.67;;;;;;;3.92;90.37;98293.00;5068475;28;20059;-43
2022/04/07 06:39:43;;;;;;;5.25;2.60;;;;;;;3.83;86.87;98300.09;5068503;28;20063;-42
2022/04/07 06:42:09;;;;;;;6.95;3.42;;;;;;;3.76;88.13;98287.47;5068325;28;20044;-42
2022/04/07 06:44:35;;;;;;;7.90;4.05;;;;;;;3.66;87.16;98292.06;5046442;28;20460;-43
2022/04/07 06:47:01;;;;;;;6.75;3.50;;;;;;;3.64;87.13;98303.25;5049265;28;20044;-41
2022/04/07 06:49:27;;;;;;;10.52;5.90;;;;;;;3.61;88.08;98300.78;5048792;28;20063;-41
2022/04/07 06:51:53;;;;;;;6.32;4.03;;;;;;;3.54;88.99;98286.41;5048240;28;20037;-41
2022/04/07 06:54:18;;;;;;;6.65;3.83;;;;;;;3.56;88.68;98300.06;5050196;28;20508;-43
2022/04/07 06:56:44;;;;;;;7.32;4.07;;;;;;;3.48;87.73;98300.28;5053269;28;20109;-42
2022/04/07 06:59:10;;;;;;;10.07;4.32;;;;;;;3.45;89.48;98284.09;5051098;28;20051;-43
2022/04/07 07:01:36;;;;;;;8.20;5.30;;;;;;;3.43;90.46;98291.84;5058940;28;20554;-42
2022/04/07 07:04:01;;;;;;;6.15;3.80;;;;;;;3.47;89.97;98288.31;5048780;28;20504;-43
2022/04/07 07:06:27;;;;;;;8.32;4.97;;;;;;;3.48;89.69;98277.16;5058549;28;20047;-44
2022/04/07 07:08:53;;;;;;;5.85;3.92;;;;;;;3.56;90.16;98285.47;5049743;28;20423;-45
2022/04/07 07:11:18;;;;;;;9.00;5.40;;;;;;;3.52;89.51;98277.88;5066077;28;20064;-44
2022/04/07 07:13:44;;;;;;;9.88;4.57;;;;;;;3.62;89.21;98284.44;5051306;28;20501;-44
2022/04/07 07:16:10;;;;;;;6.80;4.15;;;;;;;3.65;89.60;98286.94;5066724;28;20071;-45
2022/04/07 07:18:38;;;;;;;9.48;5.70;;;;;;;3.63;89.24;98286.97;5058657;28;20077;-43
2022/04/07 07:21:05;;;;;;;8.75;5.65;;;;;;;3.71;90.86;98277.34;5029347;28;20115;-43
2022/04/07 07:23:32;;;;;;;8.30;4.93;;;;;;;3.89;91.46;98288.78;5056585;28;20559;-41
2022/04/07 07:25:58;;;;;;;7.13;5.07;;;;;;;3.83;91.26;98287.22;5048300;28;20040;-41
2022/04/07 07:28:24;;;;;;;8.18;5.95;;;;;;;3.67;91.16;98270.56;5059705;28;20041;-42
2022/04/07 07:30:49;;;;;;;9.10;5.10;;;;;;;3.65;94.87;98276.66;5046715;28;20123;-41
2022/04/07 07:33:15;;;;;;;5.88;4.22;;;;;;;3.51;92.58;98265.97;5048877;28;20584;-40
2022/04/07 07:35:43;;;;;;;8.55;4.82;;;;;;;3.49;95.02;98275.41;5051405;28;20101;-41
2022/04/07 07:38:09;;;;;;;9.10;5.05;;;;;;;3.40;98.16;98263.69;5051547;28;20041;-40
2022/04/07 07:40:35;;;;;;;9.25;5.47;;;;;;;3.34;100.00;98246.72;5067178;28;20086;-42
2022/04/07 07:43:02;;;;;;;8.52;4.80;;;;;;;3.52;100.00;98268.47;5051531;28;20044;-42
2022/04/07 07:45:32;;;;;;;10.13;5.25;;;;;;;3.50;100.00;98269.41;5051882;28;20463;-41
2022/04/07 07:47:58;;;;;;;6.75;4.43;;;;;;;3.22;100.00;98228.25;5050916;28;20607;-42
2022/04/07 07:50:24;;;;;;;11.30;5.88;;;;;;;3.35;99.97;98250.09;5067202;28;20048;-41
2022/04/07 07:52:50;;;;;;;8.35;4.60;;;;;;;3.31;100.00;98238.25;5067172;28;20036;-41
2022/04/07 07:55:16;;;;;;;7.38;3.63;;;;;;;3.40;100.00;98248.28;5050278;28;20053;-41
2022/04/07 07:57:42;;;;;;;7.55;4.00;;;;;;;3.46;98.80;98260.06;5049662;28;20079;-40
2022/04/07 08:00:10;;;;;;;6.30;3.95;;;;;;;3.46;100.00;98254.94;5066826;28;20531;-41
2022/04/07 08:02:37;;;;;;;5.82;4.30;;;;;;;3.48;100.00;98235.19;5066419;28;20049;-40
2022/04/07 08:05:04;;;;;;;10.52;4.35;;;;;;;3.64;100.00;98234.72;5049737;28;20041;-41
2022/04/07 08:07:30;;;;;;;6.85;4.43;;;;;;;3.62;100.00;98248.47;5049677;28;20037;-41
2022/04/07 08:10:00;;;;;;;6.22;4.50;;;;;;;3.61;100.00;98239.09;5050031;28;20043;-41
2022/04/07 08:12:26;;;;;;;5.90;3.40;;;;;;;3.53;100.00;98223.91;5049387;28;20405;-40
2022/04/07 08:14:52;;;;;;;5.97;3.85;;;;;;;3.45;100.00;98236.16;5050616;28;20143;-40
2022/04/07 08:17:19;;;;;;;6.25;4.78;;;;;;;3.32;100.00;98239.94;5050728;28;20531;-40
2022/04/07 08:19:45;;;;;;;4.93;3.40;;;;;;;3.20;100.00;98240.28;5082200;28;20076;-42
2022/04/07 08:22:11;;;;;;;7.30;4.13;;;;;;;3.15;100.00;98242.13;5050078;28;20052;-42
2022/04/07 08:24:37;;;;;;;8.55;5.28;;;;;;;3.15;100.00;98226.72;5050651;28;20052;-40
2022/04/07 08:27:04;;;;;;;7.43;4.40;;;;;;;3.20;100.00;98230.00;5050585;28;20047;-41
2022/04/07 08:29:30;;;;;;;7.18;4.47;;;;;;;3.17;100.00;98228.38;5050458;28;20401;-40
2022/04/07 08:31:56;;;;;;;5.25;3.75;;;;;;;3.14;100.00;98231.00;5050228;28;20051;-42
2022/04/07 08:34:21;;;;;;;7.93;4.50;;;;;;;3.01;100.00;98214.28;5050770;28;20491;-41
2022/04/07 08:36:48;;;;;;;7.93;4.60;;;;;;;2.99;100.00;98205.78;5049769;28;20110;-41
2022/04/07 08:39:14;;;;;;;7.88;4.80;;;;;;;3.07;100.00;98205.56;5049255;28;20138;-40
2022/04/07 08:41:42;;;;;;;8.48;4.68;;;;;;;3.18;100.00;98198.41;5050797;28;20118;-40
2022/04/07 08:44:08;;;;;;;7.70;4.78;;;;;;;3.15;100.00;98193.34;5064629;28;20059;-40
2022/04/07 08:46:34;;;;;;;6.95;4.10;;;;;;;3.09;100.00;98194.34;5082624;28;20124;-40
2022/04/07 08:49:04;;;;;;;11.48;5.32;;;;;;;3.14;100.00;98195.06;5050125;28;20052;-41
2022/04/07 08:51:31;;;;;;;8.32;5.40;;;;;;;3.13;100.00;98190.00;5065500;28;20776;-41
2022/04/07 08:53:58;;;;;;;10.05;4.32;;;;;;;3.10;100.00;98193.47;5050088;28;20049;-41
2022/04/07 08:56:23;;;;;;;8.27;5.22;;;;;;;3.16;100.00;98184.75;5050217;28;20487;-42
2022/04/07 08:58:50;;;;;;;10.27;5.35;;;;;;;3.13;100.00;98178.00;5046933;28;20110;-43
2022/04/07 09:01:16;;;;;;;11.15;5.80;;;;;;;3.15;100.00;98180.50;5050468;28;21019;-41
2022/04/07 09:03:43;;;;;;;8.90;5.55;;;;;;;3.14;100.00;98171.97;5050201;28;20049;-41
2022/04/07 09:06:09;;;;;;;10.43;5.70;;;;;;;3.15;100.00;98170.22;5050465;28;20047;-42
2022/04/07 09:08:36;;;;;;;6.22;4.25;;;;;;;3.15;100.00;98170.22;5050239;28;20119;-41
2022/04/07 09:11:05;;;;;;;9.20;4.93;;;;;;;3.14;100.00;98189.13;5048906;28;20053;-40
2022/04/07 09:13:34;;;;;;;13.43;5.65;;;;;;;3.07;100.00;98173.03;5048233;28;20055;-41
2022/04/07 09:16:00;;;;;;;13.75;7.05;;;;;;;3.07;100.00;98175.59;5048729;28;20060;-40
2022/04/07 09:18:25;;;;;;;10.43;6.90;;;;;;;3.09;100.00;98173.00;5049702;28;20076;-41
2022/04/07 09:20:52;;;;;;;12.68;6.22;;;;;;;3.11;100.00;98156.66;5048575;28;20480;-41
2022/04/07 09:23:18;;;;;;;12.50;6.88;;;;;;;3.20;100.00;98163.25;5048059;28;20610;-40
2022/04/07 09:25:46;;;;;;;12.10;7.00;;;;;;;3.30;100.00;98170.63;5049303;28;20039;-42
2022/04/07 09:28:19;;;;;;;13.03;6.13;;;;;;;3.40;100.00;98166.91;5049548;28;20037;-40
2022/04/07 09:30:49;;;;;;;15.18;8.68;;;;;;;3.44;100.00;98171.97;5031772;28;20037;-41
2022/04/07 09:33:22;;;;;;;13.00;7.55;;;;;;;3.42;100.00;98160.00;5049402;28;20036;-41
2022/04/07 09:36:07;;;;;;;16.75;8.05;;;;;;;3.53;100.00;98162.25;5049249;28;20040;-42
2022/04/07 09:38:39;;;;;;;19.52;7.78;;;;;;;3.55;100.00;98159.63;5049572;28;20064;-41
2022/04/07 09:41:08;;;;;;;13.88;7.03;;;;;;;3.65;100.00;98156.75;5048436;28;20040;-41
2022/04/07 09:43:44;;;;;;;17.17;7.82;;;;;;;3.72;100.00;98159.94;5049082;28;20073;-41
2022/04/07 09:46:17;;;;;;;14.68;8.10;;;;;;;3.75;100.00;98157.28;5064842;28;20047;-40
2022/04/07 09:49:05;;;;;;;18.00;8.38;;;;;;;3.79;100.00;98152.00;5064099;28;20202;-40
2022/04/07 09:51:40;;;;;;;11.63;6.30;;;;;;;3.84;100.00;98147.56;5029641;28;20663;-41
2022/04/07 09:54:09;;;;;;;14.02;8.20;;;;;;;3.91;100.00;98145.63;5029710;28;20045;-41
2022/04/07 09:56:36;;;;;;;11.15;5.97;;;;;;;3.98;100.00;98147.09;5028195;28;20065;-40
2022/04/07 09:59:03;;;;;;;15.52;8.88;;;;;;;4.03;100.00;98140.06;5030528;28;20110;-41
2022/04/07 10:01:29;;;;;;;17.10;9.15;;;;;;;4.15;100.00;98137.09;5049158;28;20072;-40
2022/04/07 10:03:55;;;;;;;18.23;9.02;;;;;;;4.21;100.00;98130.91;5047698;28;20079;-40
2022/04/07 10:06:21;;;;;;;13.45;8.38;;;;;;;4.25;100.00;98142.78;5064314;28;20451;-42
2022/04/07 10:08:49;;;;;;;15.48;8.65;;;;;;;4.32;100.00;98141.69;5048685;28;20044;-41
2022/04/07 10:11:18;;;;;;;16.27;9.45;;;;;;;4.48;100.00;98131.72;5047563;28;20067;-40
2022/04/07 10:13:45;;;;;;;13.48;6.78;;;;;;;4.40;100.00;98121.66;5048812;28;20500;-42
2022/04/07 10:16:15;;;;;;;13.38;7.43;;;;;;;4.50;100.00;98128.16;5027593;28;20135;-40
2022/04/07 10:18:48;;;;;;;17.95;9.50;;;;;;;4.37;100.00;98096.06;5043888;28;20127;-41
2022/04/07 10:21:34;;;;;;;17.83;9.85;;;;;;;4.69;100.00;98133.53;5047528;28;20132;-42
2022/04/07 10:24:24;;;;;;;13.32;7.80;;;;;;;4.66;100.00;98106.16;5048364;28;20476;-40
2022/04/07 10:26:50;;;;;;;17.55;9.25;;;;;;;4.73;100.00;98132.50;5030646;28;20056;-41
2022/04/07 10:29:23;;;;;;;18.52;10.05;;;;;;;4.79;100.00;98121.16;5079997;28;20040;-41
2022/04/07 10:32:10;;;;;;;20.73;9.63;;;;;;;4.97;100.00;98112.78;5047168;28;20037;-42
2022/04/07 10:34:42;;;;;;;16.02;9.55;;;;;;;5.03;100.00;98112.53;5032654;28;20053;-43
2022/04/07 10:37:09;;;;;;;16.77;9.35;;;;;;;5.02;100.00;98128.91;5048597;28;20033;-41
2022/04/07 10:39:39;;;;;;;18.15;9.07;;;;;;;5.08;100.00;98121.75;5048236;28;20040;-43
2022/04/07 10:42:05;;;;;;;;;;;;;;;5.20;100.00;98114.47;5048929;28;20044;-41
2022/04/07 10:44:33;;;;;;;16.48;9.27;;;;;;;5.25;100.00;98117.72;5048436;28;19974;-42
2022/04/07 10:47:03;;;;;;;17.08;9.02;;;;;;;5.34;100.00;98112.25;5047247;28;20044;-41
2022/04/07 10:49:29;;;;;;;19.75;9.63;;;;;;;5.24;100.00;98100.56;5048320;28;20028;-41
2022/04/07 10:51:57;;;;;;;22.52;10.20;;;;;;;5.45;100.00;98120.38;5048329;28;20066;-41
2022/04/07 10:54:25;;;;;;;18.02;9.75;;;;;;;5.59;100.00;98115.53;5047645;28;20049;-41
2022/04/07 10:56:53;;;;;;;16.65;9.02;;;;;;;5.64;100.00;98117.91;5048111;28;20053;-42
2022/04/07 10:59:25;;;;;;;20.45;10.30;;;;;;;5.76;100.00;98105.38;5046044;28;20524;-41
2022/04/07 11:02:06;;;;;;;16.77;10.60;;;;;;;5.92;100.00;98097.88;5048131;28;20527;-41
2022/04/07 11:04:39;;;;;;;15.23;9.20;;;;;;;5.88;93.17;98098.91;5030193;28;20071;-40
2022/04/07 11:07:08;;;;;;;15.68;8.57;;;;;;;6.01;98.55;98091.53;5047564;28;20049;-40
2022/04/07 11:09:54;;;;;;;23.20;10.33;;;;;;;6.10;99.24;98083.38;5047802;28;20422;-40
2022/04/07 11:12:24;;;;;;;15.85;9.27;;;;;;;6.14;99.03;98078.03;5048041;28;20294;-41
2022/04/07 11:14:52;;;;;;;19.30;11.18;;;;;;;6.20;100.00;98058.88;5046565;28;20424;-41
2022/04/07 11:17:36;;;;;;;19.25;9.73;;;;;;;6.44;97.01;98075.88;5079787;28;20036;-41
2022/04/07 11:20:06;;;;;;;20.20;10.82;;;;;;;6.54;97.49;98069.41;5046372;28;20053;-41
2022/04/07 11:22:51;;;;;;;;;;;;;;;6.66;92.85;98071.44;5047122;28;20656;-42
2022/04/07 11:25:40;;;;;;;13.18;8.50;;;;;;;6.65;92.58;98066.34;5027499;28;19943;-41
2022/04/07 11:28:14;;;;;;;17.92;10.20;;;;;;;6.78;97.65;98041.66;5027829;28;20033;-41
2022/04/07 11:30:46;;;;;;;18.33;10.90;;;;;;;7.16;99.03;98063.16;5026237;28;20068;-41
2022/04/07 11:33:18;;;;;;;16.05;9.70;;;;;;;7.50;86.68;98077.91;5031444;28;20071;-39
2022/04/07 11:36:05;;;;;;;15.43;9.15;;;;;;;7.77;87.31;98076.59;5046112;28;20091;-41
2022/04/07 11:38:34;;;;;;;18.40;9.90;;;;;;;7.93;91.51;98067.16;5048257;28;20032;-41